C49MR CYKF-CYKF
Flight info
| Callsign | C49MR |
|---|---|
| Flight time | N/A |
| Altitude | |
| Route | VFR WESTBOUND |
| Aircraft | C172 |
Departure
| Time | 2026-05-05 23:51 |
|---|---|
| Airport | Region of Waterloo International Airport (CYKF) |
Arrival
| Time | N/A |
|---|---|
| Airport | Region of Waterloo International Airport (CYKF) |
| Time | Latitude | Longitude | Altitude | Speed | Heading |
|---|---|---|---|---|---|
| 2026-05-05 23:28 | 43.45508 | -80.38336 | 1040 ft | 0 kts | 218° |
| 2026-05-05 23:41 | 43.45506 | -80.38337 | 1030 ft | 3 kts | 221° |
| 2026-05-05 23:41 | 43.45504 | -80.38341 | 1030 ft | 0 kts | 247° |
| 2026-05-05 23:42 | 43.45510 | -80.38360 | 1030 ft | 6 kts | 340° |
| 2026-05-05 23:42 | 43.45541 | -80.38337 | 1030 ft | 5 kts | 38° |
| 2026-05-05 23:42 | 43.45565 | -80.38311 | 1030 ft | 4 kts | 36° |
| 2026-05-05 23:43 | 43.45583 | -80.38291 | 1030 ft | 3 kts | 41° |
| 2026-05-05 23:43 | 43.45601 | -80.38274 | 1030 ft | 5 kts | 17° |
| 2026-05-05 23:43 | 43.45639 | -80.38319 | 1030 ft | 9 kts | 308° |
| 2026-05-05 23:43 | 43.45671 | -80.38375 | 1030 ft | 7 kts | 309° |
| 2026-05-05 23:44 | 43.45697 | -80.38419 | 1030 ft | 6 kts | 308° |
| 2026-05-05 23:44 | 43.45729 | -80.38474 | 1030 ft | 7 kts | 309° |
| 2026-05-05 23:44 | 43.45777 | -80.38528 | 1031 ft | 10 kts | 26° |
| 2026-05-05 23:44 | 43.45806 | -80.38459 | 1031 ft | 8 kts | 63° |
| 2026-05-05 23:45 | 43.45830 | -80.38385 | 1031 ft | 9 kts | 67° |
| 2026-05-05 23:45 | 43.45854 | -80.38311 | 1030 ft | 8 kts | 65° |
| 2026-05-05 23:45 | 43.45889 | -80.38210 | 1030 ft | 15 kts | 65° |
| 2026-05-05 23:45 | 43.45931 | -80.38086 | 1030 ft | 13 kts | 66° |
| 2026-05-05 23:46 | 43.45968 | -80.37974 | 1030 ft | 13 kts | 64° |
| 2026-05-05 23:46 | 43.46009 | -80.37852 | 1031 ft | 15 kts | 65° |
| 2026-05-05 23:46 | 43.46058 | -80.37707 | 1031 ft | 16 kts | 64° |
| 2026-05-05 23:46 | 43.46101 | -80.37579 | 1031 ft | 14 kts | 65° |
| 2026-05-05 23:47 | 43.46140 | -80.37465 | 1031 ft | 13 kts | 65° |
| 2026-05-05 23:47 | 43.46175 | -80.37362 | 1031 ft | 11 kts | 64° |
| 2026-05-05 23:47 | 43.46199 | -80.37291 | 1031 ft | 7 kts | 65° |
| 2026-05-05 23:47 | 43.46220 | -80.37230 | 1031 ft | 4 kts | 65° |
| 2026-05-05 23:48 | 43.46230 | -80.37207 | 1031 ft | 2 kts | 47° |
| 2026-05-05 23:48 | 43.46243 | -80.37198 | 1031 ft | 4 kts | 14° |
| 2026-05-05 23:48 | 43.46265 | -80.37191 | 1031 ft | 3 kts | 14° |
| 2026-05-05 23:48 | 43.46284 | -80.37185 | 1031 ft | 4 kts | 13° |
| 2026-05-05 23:49 | 43.46302 | -80.37178 | 1031 ft | 0 kts | 15° |
| 2026-05-05 23:49 | 43.46308 | -80.37176 | 1031 ft | 2 kts | 12° |
| 2026-05-05 23:49 | 43.46364 | -80.37199 | 1030 ft | 11 kts | 336° |
| 2026-05-05 23:50 | 43.46366 | -80.37286 | 1030 ft | 18 kts | 245° |
| 2026-05-05 23:50 | 43.46251 | -80.37629 | 1031 ft | 59 kts | 246° |
| 2026-05-05 23:50 | 43.46058 | -80.38182 | 1107 ft | 67 kts | 251° |
| 2026-05-05 23:50 | 43.45853 | -80.38783 | 1210 ft | 72 kts | 250° |
| 2026-05-05 23:51 | 43.45628 | -80.39393 | 1364 ft | 72 kts | 249° |
| 2026-05-05 23:51 | 43.45375 | -80.40012 | 1491 ft | 76 kts | 241° |
| 2026-05-05 23:51 | 43.45173 | -80.40668 | 1658 ft | 72 kts | 251° |
| 2026-05-05 23:51 | 43.44857 | -80.41225 | 1796 ft | 76 kts | 241° |
| 2026-05-05 23:52 | 43.44615 | -80.41877 | 1895 ft | 81 kts | 247° |
| 2026-05-05 23:52 | 43.44412 | -80.42626 | 1997 ft | 85 kts | 258° |
| 2026-05-05 23:52 | 43.44281 | -80.43434 | 2130 ft | 83 kts | 257° |
| 2026-05-05 23:52 | 43.44150 | -80.44179 | 2287 ft | 79 kts | 259° |
| 2026-05-05 23:53 | 43.44059 | -80.44935 | 2390 ft | 80 kts | 268° |
| 2026-05-05 23:53 | 43.43928 | -80.45751 | 2375 ft | 94 kts | 249° |
| 2026-05-05 23:53 | 43.43612 | -80.46550 | 2440 ft | 93 kts | 244° |
| 2026-05-05 23:53 | 43.43258 | -80.47327 | 2464 ft | 99 kts | 245° |
| 2026-05-05 23:54 | 43.42930 | -80.48166 | 2497 ft | 100 kts | 249° |
| 2026-05-05 23:54 | 43.42628 | -80.48971 | 2649 ft | 93 kts | 250° |
| 2026-05-05 23:54 | 43.42337 | -80.49753 | 2777 ft | 94 kts | 223° |
| 2026-05-05 23:54 | 43.41640 | -80.49893 | 2760 ft | 110 kts | 167° |
| 2026-05-05 23:55 | 43.41072 | -80.49153 | 2732 ft | 117 kts | 110° |
| 2026-05-05 23:55 | 43.41253 | -80.48359 | 2826 ft | 95 kts | 346° |
| 2026-05-05 23:55 | 43.41676 | -80.49044 | 2795 ft | 95 kts | 303° |
| 2026-05-05 23:55 | 43.42031 | -80.49711 | 2919 ft | 91 kts | 296° |
| 2026-05-05 23:56 | 43.42212 | -80.50515 | 3029 ft | 89 kts | 288° |
| 2026-05-05 23:56 | 43.42360 | -80.51355 | 3077 ft | 91 kts | 285° |
| 2026-05-05 23:56 | 43.42523 | -80.52221 | 3086 ft | 97 kts | 287° |
| 2026-05-05 23:56 | 43.42733 | -80.53072 | 3198 ft | 91 kts | 292° |
| 2026-05-05 23:57 | 43.42939 | -80.53891 | 3261 ft | 92 kts | 289° |
| 2026-05-05 23:57 | 43.43144 | -80.54748 | 3230 ft | 100 kts | 289° |
| 2026-05-05 23:57 | 43.43371 | -80.55676 | 3217 ft | 101 kts | 289° |
| 2026-05-05 23:57 | 43.43650 | -80.56488 | 3355 ft | 92 kts | 321° |
| 2026-05-05 23:58 | 43.44257 | -80.56403 | 3478 ft | 97 kts | 25° |
| 2026-05-05 23:58 | 43.44866 | -80.55979 | 3528 ft | 100 kts | 21° |
| 2026-05-05 23:58 | 43.45474 | -80.55448 | 3526 ft | 107 kts | 27° |
| 2026-05-05 23:58 | 43.46155 | -80.54952 | 3442 ft | 113 kts | 20° |
| 2026-05-05 23:59 | 43.46851 | -80.54517 | 3429 ft | 102 kts | 21° |
| 2026-05-05 23:59 | 43.47470 | -80.54101 | 3353 ft | 97 kts | 19° |
| 2026-05-05 23:59 | 43.48079 | -80.53708 | 3274 ft | 94 kts | 24° |
| 2026-05-05 23:59 | 43.48628 | -80.53299 | 3232 ft | 87 kts | 20° |
| 2026-05-06 00:00 | 43.49151 | -80.52949 | 3185 ft | 85 kts | 19° |
| 2026-05-06 00:00 | 43.49681 | -80.52611 | 3112 ft | 86 kts | 22° |
| 2026-05-06 00:00 | 43.50218 | -80.52229 | 3174 ft | 82 kts | 21° |
| 2026-05-06 00:00 | 43.50747 | -80.51867 | 3108 ft | 82 kts | 18° |
| 2026-05-06 00:01 | 43.51183 | -80.51460 | 3062 ft | 75 kts | 53° |
| 2026-05-06 00:01 | 43.51581 | -80.50909 | 3083 ft | 90 kts | 5° |
| 2026-05-06 00:01 | 43.52165 | -80.50527 | 3238 ft | 102 kts | 53° |
| 2026-05-06 00:01 | 43.52423 | -80.49567 | 3364 ft | 109 kts | 63° |
| 2026-05-06 00:02 | 43.52748 | -80.48624 | 3398 ft | 111 kts | 61° |
| 2026-05-06 00:02 | 43.53010 | -80.47640 | 3494 ft | 106 kts | 74° |
| 2026-05-06 00:02 | 43.53237 | -80.46686 | 3597 ft | 105 kts | 65° |
| 2026-05-06 00:02 | 43.53526 | -80.45775 | 3695 ft | 102 kts | 66° |
| 2026-05-06 00:03 | 43.53785 | -80.44766 | 3444 ft | 120 kts | 69° |
| 2026-05-06 00:03 | 43.54007 | -80.43677 | 3282 ft | 112 kts | 73° |
| 2026-05-06 00:03 | 43.54161 | -80.42679 | 3234 ft | 102 kts | 77° |
| 2026-05-06 00:03 | 43.54285 | -80.41732 | 3156 ft | 100 kts | 79° |
| 2026-05-06 00:04 | 43.54393 | -80.40831 | 3097 ft | 96 kts | 77° |
| 2026-05-06 00:04 | 43.54657 | -80.40044 | 3007 ft | 91 kts | 26° |
| 2026-05-06 00:04 | 43.55224 | -80.40098 | 2924 ft | 83 kts | 335° |
| 2026-05-06 00:04 | 43.55754 | -80.40351 | 2920 ft | 76 kts | 339° |
| 2026-05-06 00:05 | 43.56792 | -80.40797 | 2810 ft | 76 kts | 336° |
| 2026-05-06 00:05 | 43.57286 | -80.41034 | 2807 ft | 77 kts | 337° |
| 2026-05-06 00:05 | 43.57790 | -80.41267 | 2812 ft | 74 kts | 341° |
| 2026-05-06 00:06 | 43.58298 | -80.41423 | 2759 ft | 77 kts | 343° |
| 2026-05-06 00:06 | 43.58836 | -80.41379 | 2713 ft | 78 kts | 9° |
| 2026-05-06 00:06 | 43.59358 | -80.41193 | 2702 ft | 78 kts | 13° |
| 2026-05-06 00:06 | 43.59868 | -80.40977 | 2782 ft | 74 kts | 12° |
| 2026-05-06 00:07 | 43.60373 | -80.40778 | 2815 ft | 76 kts | 13° |
| 2026-05-06 00:07 | 43.60868 | -80.40578 | 2805 ft | 73 kts | 10° |
| 2026-05-06 00:07 | 43.61367 | -80.40417 | 2844 ft | 77 kts | 6° |
| 2026-05-06 00:07 | 43.61936 | -80.40240 | 2816 ft | 88 kts | 9° |
| 2026-05-06 00:08 | 43.62515 | -80.40045 | 2802 ft | 83 kts | 12° |
| 2026-05-06 00:08 | 43.63102 | -80.39875 | 2707 ft | 86 kts | 4° |
| 2026-05-06 00:08 | 43.63644 | -80.39680 | 2746 ft | 76 kts | 11° |
| 2026-05-06 00:08 | 43.64146 | -80.39411 | 2798 ft | 82 kts | 20° |
| 2026-05-06 00:09 | 43.64669 | -80.39019 | 2948 ft | 84 kts | 22° |
| 2026-05-06 00:09 | 43.65214 | -80.38654 | 3159 ft | 88 kts | 21° |
| 2026-05-06 00:09 | 43.65828 | -80.38350 | 3251 ft | 101 kts | 9° |
| 2026-05-06 00:09 | 43.66562 | -80.38157 | 3223 ft | 112 kts | 6° |
| 2026-05-06 00:10 | 43.67302 | -80.38027 | 3106 ft | 101 kts | 7° |
| 2026-05-06 00:10 | 43.67971 | -80.37828 | 2994 ft | 91 kts | 7° |
| 2026-05-06 00:10 | 43.68562 | -80.37634 | 2941 ft | 84 kts | 7° |
| 2026-05-06 00:10 | 43.69105 | -80.37542 | 2890 ft | 74 kts | 1° |
| 2026-05-06 00:11 | 43.69615 | -80.37501 | 2911 ft | 61 kts | 353° |
| 2026-05-06 00:11 | 43.70046 | -80.37580 | 3094 ft | 65 kts | 343° |
| 2026-05-06 00:11 | 43.70589 | -80.37610 | 3202 ft | 85 kts | 356° |
| 2026-05-06 00:11 | 43.71201 | -80.37695 | 3334 ft | 94 kts | 345° |
| 2026-05-06 00:12 | 43.71896 | -80.37922 | 3240 ft | 98 kts | 333° |
| 2026-05-06 00:12 | 43.72455 | -80.38204 | 3153 ft | 83 kts | 335° |
| 2026-05-06 00:12 | 43.72906 | -80.38599 | 3041 ft | 74 kts | 323° |
| 2026-05-06 00:12 | 43.73296 | -80.39019 | 2950 ft | 70 kts | 304° |
| 2026-05-06 00:13 | 43.73334 | -80.39654 | 2896 ft | 70 kts | 260° |
| 2026-05-06 00:13 | 43.73228 | -80.40329 | 2823 ft | 73 kts | 271° |
| 2026-05-06 00:13 | 43.73261 | -80.41031 | 2801 ft | 71 kts | 257° |
| 2026-05-06 00:13 | 43.72952 | -80.41594 | 2732 ft | 81 kts | 211° |
| 2026-05-06 00:14 | 43.72421 | -80.41900 | 2728 ft | 87 kts | 221° |
| 2026-05-06 00:14 | 43.71952 | -80.42462 | 2693 ft | 86 kts | 216° |
| 2026-05-06 00:14 | 43.71448 | -80.42876 | 2651 ft | 84 kts | 216° |
| 2026-05-06 00:14 | 43.70973 | -80.43266 | 2700 ft | 73 kts | 214° |
| 2026-05-06 00:15 | 43.70521 | -80.43563 | 2767 ft | 72 kts | 208° |
| 2026-05-06 00:15 | 43.70046 | -80.43774 | 2766 ft | 71 kts | 199° |
| 2026-05-06 00:15 | 43.69555 | -80.43895 | 2733 ft | 72 kts | 195° |
| 2026-05-06 00:15 | 43.69048 | -80.43986 | 2758 ft | 76 kts | 189° |
| 2026-05-06 00:16 | 43.68533 | -80.44005 | 2752 ft | 73 kts | 186° |
| 2026-05-06 00:16 | 43.68019 | -80.43973 | 2711 ft | 76 kts | 180° |
| 2026-05-06 00:16 | 43.67440 | -80.43908 | 2727 ft | 91 kts | 185° |
| 2026-05-06 00:16 | 43.66765 | -80.43902 | 2733 ft | 98 kts | 185° |
| 2026-05-06 00:17 | 43.66143 | -80.43905 | 2798 ft | 85 kts | 183° |
| 2026-05-06 00:17 | 43.65534 | -80.43831 | 2890 ft | 91 kts | 181° |
| 2026-05-06 00:17 | 43.65118 | -80.44191 | 3017 ft | 75 kts | 277° |
| 2026-05-06 00:17 | 43.65489 | -80.44607 | 3003 ft | 79 kts | 353° |
| 2026-05-06 00:18 | 43.66020 | -80.44320 | 3028 ft | 91 kts | 39° |
| 2026-05-06 00:18 | 43.66360 | -80.43563 | 3106 ft | 98 kts | 62° |
| 2026-05-06 00:18 | 43.66656 | -80.42702 | 3184 ft | 100 kts | 62° |
| 2026-05-06 00:18 | 43.66888 | -80.41806 | 3269 ft | 100 kts | 74° |
| 2026-05-06 00:19 | 43.67098 | -80.40860 | 3331 ft | 102 kts | 68° |
| 2026-05-06 00:19 | 43.67307 | -80.39940 | 3446 ft | 98 kts | 69° |
| 2026-05-06 00:19 | 43.67457 | -80.39016 | 3494 ft | 104 kts | 75° |
| 2026-05-06 00:19 | 43.67686 | -80.38061 | 3578 ft | 101 kts | 63° |
| 2026-05-06 00:20 | 43.67891 | -80.37172 | 3789 ft | 87 kts | 69° |
| 2026-05-06 00:20 | 43.68077 | -80.36355 | 3876 ft | 91 kts | 66° |
| 2026-05-06 00:20 | 43.68395 | -80.35565 | 3893 ft | 99 kts | 60° |
| 2026-05-06 00:20 | 43.68764 | -80.34716 | 3914 ft | 103 kts | 56° |
| 2026-05-06 00:21 | 43.69018 | -80.34155 | 3930 ft | 104 kts | 46° |
| 2026-05-06 00:21 | 43.69555 | -80.32978 | 3909 ft | 107 kts | 57° |
| 2026-05-06 00:21 | 43.69916 | -80.32137 | 3899 ft | 101 kts | 53° |
| 2026-05-06 00:21 | 43.70167 | -80.31566 | 3794 ft | 107 kts | 54° |
| 2026-05-06 00:22 | 43.70660 | -80.30381 | 3678 ft | 106 kts | 57° |
| 2026-05-06 00:22 | 43.70961 | -80.29456 | 3622 ft | 105 kts | 68° |
| 2026-05-06 00:22 | 43.71070 | -80.28481 | 3604 ft | 102 kts | 80° |
| 2026-05-06 00:22 | 43.71129 | -80.27821 | 3573 ft | 102 kts | 81° |
| 2026-05-06 00:23 | 43.71247 | -80.26565 | 3557 ft | 98 kts | 81° |
| 2026-05-06 00:23 | 43.71303 | -80.25926 | 3516 ft | 100 kts | 81° |
| 2026-05-06 00:23 | 43.71390 | -80.24954 | 3449 ft | 103 kts | 80° |
| 2026-05-06 00:23 | 43.71498 | -80.23993 | 3437 ft | 100 kts | 80° |
| 2026-05-06 00:24 | 43.71580 | -80.23063 | 3449 ft | 96 kts | 82° |
| 2026-05-06 00:24 | 43.71671 | -80.22159 | 3462 ft | 93 kts | 80° |
| 2026-05-06 00:24 | 43.71750 | -80.21284 | 3456 ft | 93 kts | 82° |
| 2026-05-06 00:24 | 43.71831 | -80.20388 | 3435 ft | 94 kts | 79° |
| 2026-05-06 00:25 | 43.71929 | -80.19499 | 3428 ft | 94 kts | 80° |
| 2026-05-06 00:25 | 43.72011 | -80.18602 | 3408 ft | 95 kts | 81° |
| 2026-05-06 00:25 | 43.72099 | -80.17703 | 3420 ft | 93 kts | 80° |